CEB3552 RPMZ-RPLL
Flight info
| Callsign | CEB3552 |
|---|---|
| Flight time | 1h 18m |
| Altitude | 34000 |
| Route | BURCO1E BURCO W3 IOO B472 IBAGO IBAGO7R |
| Aircraft | A20N/M-SDE2E3FGHIJ1RWXY/LB1 |
Departure
| Time | 2026-05-07 00:47 |
|---|---|
| Airport | Zamboanga International Airport (RPMZ) |
Arrival
| Time | 2026-05-07 02:06 |
|---|---|
| Airport | Ninoy Aquino International Airport (RPLL) |
| Time | Latitude | Longitude | Altitude | Speed | Heading |
|---|---|---|---|---|---|
| 2026-05-07 00:33 | 6.92048 | 122.06240 | 62 ft | 0 kts | 156° |
| 2026-05-07 00:39 | 6.92047 | 122.06240 | 62 ft | 0 kts | 156° |
| 2026-05-07 00:39 | 6.92046 | 122.06242 | 62 ft | 0 kts | 123° |
| 2026-05-07 00:39 | 6.92047 | 122.06246 | 62 ft | 0 kts | 57° |
| 2026-05-07 00:40 | 6.92056 | 122.06245 | 62 ft | 2 kts | 338° |
| 2026-05-07 00:40 | 6.92082 | 122.06232 | 62 ft | 5 kts | 333° |
| 2026-05-07 00:40 | 6.92107 | 122.06214 | 62 ft | 4 kts | 302° |
| 2026-05-07 00:40 | 6.92112 | 122.06175 | 62 ft | 7 kts | 274° |
| 2026-05-07 00:41 | 6.92116 | 122.06116 | 62 ft | 9 kts | 274° |
| 2026-05-07 00:41 | 6.92133 | 122.06061 | 62 ft | 7 kts | 311° |
| 2026-05-07 00:41 | 6.92182 | 122.06020 | 62 ft | 10 kts | 319° |
| 2026-05-07 00:41 | 6.92234 | 122.05972 | 63 ft | 4 kts | 307° |
| 2026-05-07 00:42 | 6.92245 | 122.05936 | 63 ft | 6 kts | 274° |
| 2026-05-07 00:42 | 6.92249 | 122.05878 | 63 ft | 9 kts | 274° |
| 2026-05-07 00:42 | 6.92254 | 122.05802 | 63 ft | 12 kts | 274° |
| 2026-05-07 00:42 | 6.92260 | 122.05710 | 63 ft | 14 kts | 274° |
| 2026-05-07 00:43 | 6.92267 | 122.05605 | 63 ft | 15 kts | 274° |
| 2026-05-07 00:43 | 6.92274 | 122.05486 | 63 ft | 17 kts | 273° |
| 2026-05-07 00:43 | 6.92282 | 122.05359 | 64 ft | 18 kts | 274° |
| 2026-05-07 00:43 | 6.92292 | 122.05227 | 64 ft | 18 kts | 274° |
| 2026-05-07 00:44 | 6.92298 | 122.05108 | 64 ft | 17 kts | 274° |
| 2026-05-07 00:44 | 6.92307 | 122.04990 | 64 ft | 9 kts | 274° |
| 2026-05-07 00:44 | 6.92305 | 122.04942 | 64 ft | 7 kts | 258° |
| 2026-05-07 00:44 | 6.92301 | 122.04900 | 64 ft | 5 kts | 274° |
| 2026-05-07 00:45 | 6.92305 | 122.04851 | 64 ft | 4 kts | 278° |
| 2026-05-07 00:45 | 6.92320 | 122.04823 | 64 ft | 5 kts | 301° |
| 2026-05-07 00:45 | 6.92332 | 122.04803 | 64 ft | 0 kts | 283° |
| 2026-05-07 00:45 | 6.92328 | 122.04800 | 65 ft | 1 kts | 197° |
| 2026-05-07 00:46 | 6.92318 | 122.04815 | 65 ft | 4 kts | 102° |
| 2026-05-07 00:46 | 6.92317 | 122.04823 | 65 ft | 0 kts | 93° |
| 2026-05-07 00:46 | 6.92314 | 122.04874 | 65 ft | 33 kts | 93° |
| 2026-05-07 00:47 | 6.92281 | 122.05385 | 64 ft | 108 kts | 94° |
| 2026-05-07 00:47 | 6.92219 | 122.06342 | 96 ft | 161 kts | 92° |
| 2026-05-07 00:47 | 6.92152 | 122.07491 | 609 ft | 165 kts | 92° |
| 2026-05-07 00:47 | 6.92082 | 122.08652 | 1215 ft | 168 kts | 92° |
| 2026-05-07 00:48 | 6.92008 | 122.09804 | 1810 ft | 169 kts | 92° |
| 2026-05-07 00:48 | 6.91928 | 122.11025 | 2173 ft | 183 kts | 92° |
| 2026-05-07 00:48 | 6.91843 | 122.12351 | 2505 ft | 199 kts | 90° |
| 2026-05-07 00:48 | 6.92143 | 122.13784 | 2699 ft | 223 kts | 55° |
| 2026-05-07 00:49 | 6.93350 | 122.14785 | 3146 ft | 239 kts | 20° |
| 2026-05-07 00:49 | 6.95024 | 122.15185 | 3663 ft | 254 kts | 13° |
| 2026-05-07 00:49 | 6.96812 | 122.15610 | 4242 ft | 266 kts | 15° |
| 2026-05-07 00:49 | 6.98612 | 122.16070 | 5011 ft | 269 kts | 15° |
| 2026-05-07 00:50 | 7.00434 | 122.16539 | 5790 ft | 272 kts | 15° |
| 2026-05-07 00:50 | 7.02268 | 122.17010 | 6532 ft | 276 kts | 15° |
| 2026-05-07 00:50 | 7.04145 | 122.17488 | 7288 ft | 279 kts | 15° |
| 2026-05-07 00:50 | 7.06020 | 122.17964 | 8043 ft | 281 kts | 15° |
| 2026-05-07 00:51 | 7.07918 | 122.18446 | 8794 ft | 283 kts | 15° |
| 2026-05-07 00:51 | 7.09855 | 122.18842 | 9510 ft | 287 kts | 5° |
| 2026-05-07 00:51 | 7.11850 | 122.18686 | 10215 ft | 292 kts | 348° |
| 2026-05-07 00:51 | 7.13806 | 122.18035 | 10689 ft | 304 kts | 341° |
| 2026-05-07 00:52 | 7.15850 | 122.17238 | 10984 ft | 321 kts | 340° |
| 2026-05-07 00:52 | 7.18002 | 122.16384 | 11266 ft | 338 kts | 340° |
| 2026-05-07 00:52 | 7.20254 | 122.15498 | 11536 ft | 354 kts | 340° |
| 2026-05-07 00:52 | 7.22594 | 122.14584 | 11795 ft | 368 kts | 341° |
| 2026-05-07 00:53 | 7.25011 | 122.13644 | 12216 ft | 377 kts | 341° |
| 2026-05-07 00:53 | 7.27493 | 122.12681 | 12791 ft | 380 kts | 341° |
| 2026-05-07 00:53 | 7.29952 | 122.11728 | 13334 ft | 383 kts | 341° |
| 2026-05-07 00:53 | 7.32499 | 122.10850 | 13861 ft | 385 kts | 348° |
| 2026-05-07 00:54 | 7.35142 | 122.10423 | 14388 ft | 384 kts | 359° |
| 2026-05-07 00:54 | 7.37798 | 122.10471 | 14904 ft | 384 kts | 7° |
| 2026-05-07 00:54 | 7.40470 | 122.10746 | 15416 ft | 386 kts | 9° |
| 2026-05-07 00:54 | 7.43158 | 122.11056 | 15908 ft | 388 kts | 9° |
| 2026-05-07 00:55 | 7.45870 | 122.11370 | 16378 ft | 391 kts | 9° |
| 2026-05-07 00:55 | 7.48572 | 122.11680 | 16827 ft | 394 kts | 9° |
| 2026-05-07 00:55 | 7.51299 | 122.11988 | 17266 ft | 397 kts | 9° |
| 2026-05-07 00:55 | 7.54062 | 122.12300 | 17703 ft | 399 kts | 9° |
| 2026-05-07 00:56 | 7.56860 | 122.12615 | 18133 ft | 402 kts | 9° |
| 2026-05-07 00:56 | 7.59658 | 122.12929 | 18528 ft | 405 kts | 8° |
| 2026-05-07 00:56 | 7.62467 | 122.13242 | 18915 ft | 408 kts | 8° |
| 2026-05-07 00:56 | 7.65306 | 122.13558 | 19312 ft | 410 kts | 8° |
| 2026-05-07 00:57 | 7.68129 | 122.13871 | 19689 ft | 413 kts | 8° |
| 2026-05-07 00:57 | 7.71038 | 122.14194 | 20069 ft | 416 kts | 8° |
| 2026-05-07 00:57 | 7.73895 | 122.14511 | 20442 ft | 418 kts | 8° |
| 2026-05-07 00:57 | 7.76815 | 122.14835 | 20811 ft | 421 kts | 8° |
| 2026-05-07 00:58 | 7.79740 | 122.15160 | 21169 ft | 423 kts | 8° |
| 2026-05-07 00:58 | 7.82668 | 122.15485 | 21512 ft | 426 kts | 8° |
| 2026-05-07 00:58 | 7.85637 | 122.15816 | 21848 ft | 428 kts | 7° |
| 2026-05-07 00:58 | 7.88641 | 122.16149 | 22183 ft | 431 kts | 7° |
| 2026-05-07 00:59 | 7.94614 | 122.16813 | 22882 ft | 436 kts | 7° |
| 2026-05-07 00:59 | 7.97647 | 122.17150 | 23231 ft | 438 kts | 7° |
| 2026-05-07 00:59 | 8.00692 | 122.17488 | 23580 ft | 440 kts | 7° |
| 2026-05-07 01:00 | 8.03756 | 122.17829 | 23924 ft | 442 kts | 7° |
| 2026-05-07 01:00 | 8.06824 | 122.18170 | 24267 ft | 444 kts | 7° |
| 2026-05-07 01:00 | 8.09910 | 122.18514 | 24601 ft | 446 kts | 7° |
| 2026-05-07 01:00 | 8.13035 | 122.18860 | 24925 ft | 448 kts | 7° |
| 2026-05-07 01:01 | 8.16119 | 122.19201 | 25233 ft | 450 kts | 7° |
| 2026-05-07 01:01 | 8.19292 | 122.19374 | 25520 ft | 453 kts | 359° |
| 2026-05-07 01:01 | 8.22460 | 122.19132 | 25834 ft | 455 kts | 355° |
| 2026-05-07 01:01 | 8.25591 | 122.18787 | 26123 ft | 458 kts | 354° |
| 2026-05-07 01:02 | 8.28788 | 122.18433 | 26421 ft | 459 kts | 354° |
| 2026-05-07 01:02 | 8.32001 | 122.18099 | 26705 ft | 461 kts | 355° |
| 2026-05-07 01:02 | 8.35178 | 122.17789 | 26976 ft | 463 kts | 355° |
| 2026-05-07 01:02 | 8.38426 | 122.17486 | 27251 ft | 464 kts | 355° |
| 2026-05-07 01:03 | 8.41638 | 122.17197 | 27576 ft | 464 kts | 355° |
| 2026-05-07 01:03 | 8.44840 | 122.16913 | 27930 ft | 463 kts | 355° |
| 2026-05-07 01:03 | 8.48056 | 122.16632 | 28283 ft | 461 kts | 355° |
| 2026-05-07 01:03 | 8.51260 | 122.16354 | 28619 ft | 461 kts | 355° |
| 2026-05-07 01:04 | 8.54475 | 122.16074 | 28928 ft | 460 kts | 355° |
| 2026-05-07 01:04 | 8.57638 | 122.15798 | 29224 ft | 460 kts | 355° |
| 2026-05-07 01:04 | 8.60856 | 122.15519 | 29526 ft | 460 kts | 355° |
| 2026-05-07 01:04 | 8.64058 | 122.15242 | 29830 ft | 459 kts | 355° |
| 2026-05-07 01:05 | 8.67233 | 122.14969 | 30120 ft | 459 kts | 355° |
| 2026-05-07 01:05 | 8.70406 | 122.14695 | 30377 ft | 459 kts | 355° |
| 2026-05-07 01:05 | 8.73619 | 122.14417 | 30658 ft | 458 kts | 355° |
| 2026-05-07 01:05 | 8.76797 | 122.14143 | 30921 ft | 458 kts | 355° |
| 2026-05-07 01:06 | 8.79961 | 122.13871 | 31170 ft | 458 kts | 355° |
| 2026-05-07 01:06 | 8.83174 | 122.13593 | 31419 ft | 458 kts | 355° |
| 2026-05-07 01:06 | 8.86344 | 122.13319 | 31678 ft | 458 kts | 355° |
| 2026-05-07 01:06 | 8.89550 | 122.13042 | 31929 ft | 458 kts | 355° |
| 2026-05-07 01:07 | 8.92701 | 122.12770 | 32174 ft | 458 kts | 355° |
| 2026-05-07 01:07 | 8.95900 | 122.12494 | 32386 ft | 459 kts | 354° |
| 2026-05-07 01:07 | 8.99091 | 122.12219 | 32568 ft | 460 kts | 354° |
| 2026-05-07 01:07 | 9.02295 | 122.11942 | 32775 ft | 461 kts | 354° |
| 2026-05-07 01:08 | 9.05490 | 122.11665 | 32984 ft | 462 kts | 354° |
| 2026-05-07 01:08 | 9.08728 | 122.11384 | 33203 ft | 463 kts | 354° |
| 2026-05-07 01:08 | 9.11954 | 122.11105 | 33420 ft | 463 kts | 354° |
| 2026-05-07 01:08 | 9.15159 | 122.10828 | 33629 ft | 464 kts | 354° |
| 2026-05-07 01:09 | 9.18372 | 122.10551 | 33827 ft | 465 kts | 354° |
| 2026-05-07 01:09 | 9.24880 | 122.09989 | 33869 ft | 466 kts | 354° |
| 2026-05-07 01:10 | 9.31328 | 122.09431 | 33872 ft | 466 kts | 354° |
| 2026-05-07 01:10 | 9.37847 | 122.08867 | 33876 ft | 466 kts | 354° |
| 2026-05-07 01:11 | 9.44334 | 122.08304 | 33875 ft | 466 kts | 354° |
| 2026-05-07 01:11 | 9.50797 | 122.07744 | 33874 ft | 466 kts | 354° |
| 2026-05-07 01:12 | 9.57290 | 122.07180 | 33876 ft | 467 kts | 354° |
| 2026-05-07 01:12 | 9.63776 | 122.06617 | 33877 ft | 467 kts | 354° |
| 2026-05-07 01:13 | 9.70274 | 122.06053 | 33876 ft | 467 kts | 354° |
| 2026-05-07 01:13 | 9.76713 | 122.05494 | 33878 ft | 467 kts | 354° |
| 2026-05-07 01:14 | 9.83217 | 122.04929 | 33872 ft | 467 kts | 354° |
| 2026-05-07 01:14 | 9.89695 | 122.04366 | 33864 ft | 467 kts | 354° |
| 2026-05-07 01:15 | 9.96214 | 122.03797 | 33859 ft | 467 kts | 354° |
| 2026-05-07 01:15 | 10.02708 | 122.03233 | 33856 ft | 467 kts | 354° |
| 2026-05-07 01:16 | 10.09181 | 122.02670 | 33856 ft | 467 kts | 354° |
| 2026-05-07 01:16 | 10.15699 | 122.02104 | 33857 ft | 467 kts | 354° |
| 2026-05-07 01:17 | 10.22199 | 122.01541 | 33857 ft | 467 kts | 354° |
| 2026-05-07 01:17 | 10.28666 | 122.00979 | 33857 ft | 467 kts | 354° |
| 2026-05-07 01:18 | 10.35167 | 122.00411 | 33867 ft | 467 kts | 354° |
| 2026-05-07 01:18 | 10.41678 | 121.99843 | 33871 ft | 467 kts | 354° |
| 2026-05-07 01:19 | 10.48161 | 121.99277 | 33878 ft | 467 kts | 354° |
| 2026-05-07 01:19 | 10.54621 | 121.98714 | 33881 ft | 467 kts | 354° |
| 2026-05-07 01:20 | 10.61130 | 121.98146 | 33882 ft | 466 kts | 354° |
| 2026-05-07 01:20 | 10.67622 | 121.97579 | 33882 ft | 466 kts | 354° |
| 2026-05-07 01:21 | 10.74096 | 121.97013 | 33879 ft | 466 kts | 354° |
| 2026-05-07 01:21 | 10.80598 | 121.96444 | 33879 ft | 466 kts | 354° |
| 2026-05-07 01:22 | 10.87069 | 121.95877 | 33875 ft | 466 kts | 354° |
| 2026-05-07 01:22 | 10.93558 | 121.95309 | 33876 ft | 466 kts | 354° |
| 2026-05-07 01:23 | 11.00051 | 121.94740 | 33878 ft | 467 kts | 354° |
| 2026-05-07 01:23 | 11.06516 | 121.94176 | 33878 ft | 466 kts | 354° |
| 2026-05-07 01:24 | 11.13007 | 121.93609 | 33881 ft | 466 kts | 354° |
| 2026-05-07 01:24 | 11.19510 | 121.93041 | 33882 ft | 467 kts | 354° |
| 2026-05-07 01:25 | 11.25977 | 121.92475 | 33887 ft | 467 kts | 354° |
| 2026-05-07 01:25 | 11.32493 | 121.91904 | 33892 ft | 468 kts | 354° |
| 2026-05-07 01:26 | 11.38987 | 121.91333 | 33888 ft | 468 kts | 354° |
| 2026-05-07 01:26 | 11.45512 | 121.90760 | 33886 ft | 468 kts | 354° |
| 2026-05-07 01:27 | 11.52028 | 121.90188 | 33887 ft | 469 kts | 354° |
| 2026-05-07 01:27 | 11.58573 | 121.89614 | 33886 ft | 469 kts | 354° |
| 2026-05-07 01:28 | 11.65063 | 121.89043 | 33888 ft | 469 kts | 354° |
| 2026-05-07 01:28 | 11.71594 | 121.88468 | 33888 ft | 469 kts | 354° |
| 2026-05-07 01:29 | 11.78120 | 121.87894 | 33891 ft | 469 kts | 354° |
| 2026-05-07 01:29 | 11.84636 | 121.87320 | 33890 ft | 469 kts | 354° |
| 2026-05-07 01:30 | 11.91168 | 121.86746 | 33893 ft | 470 kts | 354° |
| 2026-05-07 01:30 | 11.97708 | 121.86169 | 33896 ft | 470 kts | 354° |
| 2026-05-07 01:31 | 12.04228 | 121.85596 | 33897 ft | 471 kts | 354° |
| 2026-05-07 01:31 | 12.10769 | 121.85020 | 33898 ft | 471 kts | 354° |
| 2026-05-07 01:32 | 12.17353 | 121.84446 | 33900 ft | 471 kts | 354° |
| 2026-05-07 01:32 | 12.23881 | 121.83873 | 33900 ft | 471 kts | 354° |
| 2026-05-07 01:33 | 12.30413 | 121.83189 | 33899 ft | 470 kts | 350° |
| 2026-05-07 01:33 | 12.36816 | 121.81873 | 33902 ft | 470 kts | 344° |
| 2026-05-07 01:34 | 12.43072 | 121.79845 | 33900 ft | 472 kts | 338° |
| 2026-05-07 01:34 | 12.49146 | 121.77259 | 33904 ft | 472 kts | 335° |
| 2026-05-07 01:35 | 12.55220 | 121.74584 | 33889 ft | 472 kts | 335° |
| 2026-05-07 01:35 | 12.58219 | 121.73264 | 33503 ft | 472 kts | 335° |
| 2026-05-07 01:35 | 12.61225 | 121.71941 | 32914 ft | 468 kts | 335° |
| 2026-05-07 01:35 | 12.64228 | 121.70621 | 32272 ft | 465 kts | 335° |
| 2026-05-07 01:36 | 12.67195 | 121.69318 | 31599 ft | 463 kts | 336° |
| 2026-05-07 01:36 | 12.70140 | 121.68024 | 30892 ft | 462 kts | 336° |
| 2026-05-07 01:36 | 12.73107 | 121.66722 | 30152 ft | 462 kts | 336° |
| 2026-05-07 01:36 | 12.76036 | 121.65435 | 29414 ft | 461 kts | 336° |
| 2026-05-07 01:37 | 12.79028 | 121.64120 | 28629 ft | 461 kts | 336° |
| 2026-05-07 01:37 | 12.81952 | 121.62835 | 27799 ft | 462 kts | 336° |
| 2026-05-07 01:37 | 12.84917 | 121.61531 | 27136 ft | 458 kts | 337° |
| 2026-05-07 01:37 | 12.87836 | 121.60249 | 26533 ft | 455 kts | 337° |
| 2026-05-07 01:38 | 12.90750 | 121.58969 | 25930 ft | 451 kts | 337° |
| 2026-05-07 01:38 | 12.93593 | 121.57719 | 25373 ft | 447 kts | 337° |
| 2026-05-07 01:38 | 12.96453 | 121.56464 | 24813 ft | 443 kts | 337° |
| 2026-05-07 01:38 | 12.99302 | 121.55211 | 24264 ft | 440 kts | 338° |
| 2026-05-07 01:39 | 13.02089 | 121.53985 | 23728 ft | 436 kts | 338° |
| 2026-05-07 01:39 | 13.04883 | 121.52756 | 23196 ft | 432 kts | 338° |
| 2026-05-07 01:39 | 13.07643 | 121.51542 | 22668 ft | 429 kts | 338° |
| 2026-05-07 01:39 | 13.10400 | 121.50328 | 22134 ft | 426 kts | 338° |
| 2026-05-07 01:40 | 13.13138 | 121.49128 | 21621 ft | 423 kts | 339° |
| 2026-05-07 01:40 | 13.15856 | 121.47939 | 21105 ft | 420 kts | 339° |
| 2026-05-07 01:40 | 13.18589 | 121.46741 | 20577 ft | 418 kts | 339° |
| 2026-05-07 01:40 | 13.21222 | 121.45584 | 20066 ft | 415 kts | 338° |
| 2026-05-07 01:41 | 13.23907 | 121.44403 | 19550 ft | 413 kts | 338° |
| 2026-05-07 01:41 | 13.26528 | 121.43249 | 19038 ft | 410 kts | 338° |
| 2026-05-07 01:41 | 13.29153 | 121.42091 | 18531 ft | 408 kts | 338° |
| 2026-05-07 01:41 | 13.31769 | 121.40937 | 18015 ft | 406 kts | 338° |
| 2026-05-07 01:42 | 13.34375 | 121.39788 | 17495 ft | 403 kts | 338° |
| 2026-05-07 01:42 | 13.36947 | 121.38653 | 16976 ft | 401 kts | 338° |
| 2026-05-07 01:42 | 13.39494 | 121.37528 | 16528 ft | 396 kts | 338° |
| 2026-05-07 01:42 | 13.42005 | 121.36419 | 16376 ft | 382 kts | 339° |
| 2026-05-07 01:43 | 13.44391 | 121.35365 | 16248 ft | 368 kts | 339° |
| 2026-05-07 01:43 | 13.46711 | 121.34336 | 16135 ft | 355 kts | 338° |
| 2026-05-07 01:43 | 13.48943 | 121.33338 | 16029 ft | 342 kts | 338° |
| 2026-05-07 01:43 | 13.51095 | 121.32378 | 15940 ft | 329 kts | 338° |
| 2026-05-07 01:44 | 13.53160 | 121.31404 | 15899 ft | 324 kts | 332° |
| 2026-05-07 01:44 | 13.55032 | 121.30067 | 15904 ft | 329 kts | 320° |
| 2026-05-07 01:44 | 13.56628 | 121.28397 | 15915 ft | 332 kts | 313° |
| 2026-05-07 01:44 | 13.58177 | 121.26582 | 15910 ft | 332 kts | 312° |
| 2026-05-07 01:45 | 13.59673 | 121.24802 | 15896 ft | 332 kts | 312° |
| 2026-05-07 01:45 | 13.61191 | 121.23002 | 15917 ft | 333 kts | 312° |
| 2026-05-07 01:45 | 13.62722 | 121.21197 | 15899 ft | 333 kts | 313° |
| 2026-05-07 01:45 | 13.64260 | 121.19392 | 15889 ft | 333 kts | 313° |
| 2026-05-07 01:46 | 13.65785 | 121.17606 | 15911 ft | 333 kts | 313° |
| 2026-05-07 01:46 | 13.67311 | 121.15821 | 15928 ft | 332 kts | 313° |
| 2026-05-07 01:46 | 13.68829 | 121.14045 | 15917 ft | 332 kts | 313° |
| 2026-05-07 01:46 | 13.70361 | 121.12254 | 15911 ft | 332 kts | 313° |
| 2026-05-07 01:47 | 13.71880 | 121.10444 | 15799 ft | 333 kts | 310° |
| 2026-05-07 01:47 | 13.73272 | 121.08542 | 15557 ft | 332 kts | 307° |
| 2026-05-07 01:47 | 13.74619 | 121.06620 | 15309 ft | 330 kts | 307° |
| 2026-05-07 01:47 | 13.75984 | 121.04677 | 15082 ft | 329 kts | 307° |
| 2026-05-07 01:48 | 13.77323 | 121.02787 | 14855 ft | 328 kts | 307° |
| 2026-05-07 01:48 | 13.78694 | 121.00866 | 14601 ft | 327 kts | 308° |
| 2026-05-07 01:48 | 13.80058 | 120.98965 | 14351 ft | 325 kts | 308° |
| 2026-05-07 01:48 | 13.81405 | 120.97092 | 14122 ft | 324 kts | 308° |
| 2026-05-07 01:49 | 13.82752 | 120.95222 | 13900 ft | 323 kts | 308° |
| 2026-05-07 01:49 | 13.84075 | 120.93385 | 13678 ft | 321 kts | 308° |
| 2026-05-07 01:49 | 13.85411 | 120.91532 | 13453 ft | 319 kts | 308° |
| 2026-05-07 01:49 | 13.86731 | 120.89702 | 13218 ft | 318 kts | 308° |
| 2026-05-07 01:50 | 13.88046 | 120.87878 | 12977 ft | 317 kts | 308° |
| 2026-05-07 01:50 | 13.89359 | 120.86057 | 12743 ft | 316 kts | 308° |
| 2026-05-07 01:50 | 13.90664 | 120.84248 | 12524 ft | 315 kts | 308° |
| 2026-05-07 01:50 | 13.91967 | 120.82439 | 12294 ft | 314 kts | 308° |
| 2026-05-07 01:51 | 13.93269 | 120.80631 | 12073 ft | 314 kts | 308° |
| 2026-05-07 01:51 | 13.94581 | 120.78808 | 11839 ft | 313 kts | 308° |
| 2026-05-07 01:51 | 13.95873 | 120.77014 | 11618 ft | 312 kts | 308° |
| 2026-05-07 01:51 | 13.97158 | 120.75229 | 11386 ft | 311 kts | 308° |
| 2026-05-07 01:52 | 13.98451 | 120.73434 | 11128 ft | 310 kts | 308° |
| 2026-05-07 01:52 | 13.99730 | 120.71656 | 10892 ft | 308 kts | 308° |
| 2026-05-07 01:52 | 14.01002 | 120.69889 | 10662 ft | 307 kts | 308° |
| 2026-05-07 01:52 | 14.02269 | 120.68128 | 10431 ft | 307 kts | 308° |
| 2026-05-07 01:53 | 14.03546 | 120.66354 | 10183 ft | 306 kts | 308° |
| 2026-05-07 01:53 | 14.04813 | 120.64593 | 9955 ft | 305 kts | 308° |
| 2026-05-07 01:53 | 14.06079 | 120.62832 | 9831 ft | 304 kts | 308° |
| 2026-05-07 01:53 | 14.07348 | 120.61066 | 9716 ft | 304 kts | 308° |
| 2026-05-07 01:54 | 14.08610 | 120.59309 | 9595 ft | 304 kts | 308° |
| 2026-05-07 01:54 | 14.09973 | 120.57651 | 9471 ft | 302 kts | 319° |
| 2026-05-07 01:54 | 14.11610 | 120.56355 | 9376 ft | 299 kts | 330° |
| 2026-05-07 01:54 | 14.13422 | 120.55270 | 9238 ft | 298 kts | 333° |
| 2026-05-07 01:55 | 14.15237 | 120.54233 | 9114 ft | 297 kts | 333° |
| 2026-05-07 01:55 | 14.17045 | 120.53191 | 8952 ft | 296 kts | 333° |
| 2026-05-07 01:55 | 14.18847 | 120.52154 | 8739 ft | 295 kts | 336° |
| 2026-05-07 01:55 | 14.20814 | 120.51644 | 8408 ft | 286 kts | 6° |
| 2026-05-07 01:56 | 14.22656 | 120.52180 | 8128 ft | 273 kts | 33° |
| 2026-05-07 01:56 | 14.24033 | 120.53450 | 7885 ft | 263 kts | 57° |
| 2026-05-07 01:56 | 14.24964 | 120.55055 | 7630 ft | 258 kts | 61° |
| 2026-05-07 01:56 | 14.25845 | 120.56639 | 7354 ft | 259 kts | 61° |
| 2026-05-07 01:57 | 14.26765 | 120.58278 | 7008 ft | 268 kts | 61° |
| 2026-05-07 01:57 | 14.27719 | 120.59963 | 6673 ft | 268 kts | 61° |
| 2026-05-07 01:57 | 14.28659 | 120.61612 | 6372 ft | 267 kts | 61° |
| 2026-05-07 01:57 | 14.29604 | 120.63268 | 6064 ft | 265 kts | 61° |
| 2026-05-07 01:58 | 14.30543 | 120.64913 | 5763 ft | 264 kts | 60° |
| 2026-05-07 01:58 | 14.31479 | 120.66549 | 5443 ft | 263 kts | 60° |
| 2026-05-07 01:58 | 14.32392 | 120.68147 | 5190 ft | 258 kts | 60° |
| 2026-05-07 01:58 | 14.33280 | 120.69714 | 4963 ft | 251 kts | 62° |
| 2026-05-07 01:59 | 14.34115 | 120.71278 | 4697 ft | 246 kts | 63° |
| 2026-05-07 01:59 | 14.34891 | 120.72855 | 4435 ft | 242 kts | 64° |
| 2026-05-07 01:59 | 14.35651 | 120.74384 | 4229 ft | 236 kts | 63° |
| 2026-05-07 01:59 | 14.36414 | 120.75863 | 3990 ft | 232 kts | 62° |
| 2026-05-07 02:00 | 14.37181 | 120.77299 | 3759 ft | 228 kts | 62° |
| 2026-05-07 02:00 | 14.37965 | 120.78738 | 3535 ft | 224 kts | 62° |
| 2026-05-07 02:00 | 14.38733 | 120.80129 | 3350 ft | 218 kts | 61° |
| 2026-05-07 02:00 | 14.39472 | 120.81460 | 3274 ft | 206 kts | 61° |
| 2026-05-07 02:01 | 14.40116 | 120.82615 | 3275 ft | 191 kts | 62° |
| 2026-05-07 02:01 | 14.40764 | 120.83778 | 3338 ft | 181 kts | 62° |
| 2026-05-07 02:01 | 14.41390 | 120.84903 | 3201 ft | 178 kts | 62° |
| 2026-05-07 02:01 | 14.42005 | 120.86009 | 2964 ft | 173 kts | 62° |
| 2026-05-07 02:02 | 14.42590 | 120.87060 | 2740 ft | 167 kts | 62° |
| 2026-05-07 02:02 | 14.43170 | 120.88104 | 2519 ft | 162 kts | 61° |
| 2026-05-07 02:02 | 14.43721 | 120.89095 | 2330 ft | 153 kts | 61° |
| 2026-05-07 02:02 | 14.44231 | 120.90015 | 2135 ft | 147 kts | 61° |
| 2026-05-07 02:03 | 14.44742 | 120.90934 | 1955 ft | 147 kts | 61° |
| 2026-05-07 02:03 | 14.45257 | 120.91861 | 1780 ft | 147 kts | 61° |
| 2026-05-07 02:03 | 14.45759 | 120.92764 | 1607 ft | 143 kts | 62° |
| 2026-05-07 02:03 | 14.46257 | 120.93660 | 1419 ft | 140 kts | 62° |
| 2026-05-07 02:04 | 14.46741 | 120.94531 | 1247 ft | 139 kts | 62° |
| 2026-05-07 02:04 | 14.47221 | 120.95397 | 1074 ft | 139 kts | 61° |
| 2026-05-07 02:04 | 14.47705 | 120.96266 | 899 ft | 139 kts | 62° |
| 2026-05-07 02:04 | 14.48191 | 120.97122 | 699 ft | 138 kts | 60° |
| 2026-05-07 02:05 | 14.48671 | 120.97994 | 518 ft | 138 kts | 62° |
| 2026-05-07 02:05 | 14.49140 | 120.98854 | 366 ft | 137 kts | 60° |
| 2026-05-07 02:05 | 14.49621 | 120.99714 | 189 ft | 136 kts | 60° |
| 2026-05-07 02:05 | 14.50091 | 121.00560 | 86 ft | 131 kts | 62° |
| 2026-05-07 02:06 | 14.50471 | 121.01250 | 82 ft | 86 kts | 60° |
| 2026-05-07 02:06 | 14.50663 | 121.01594 | 82 ft | 26 kts | 58° |
| 2026-05-07 02:06 | 14.50773 | 121.01723 | 82 ft | 19 kts | 39° |
| 2026-05-07 02:06 | 14.50852 | 121.01786 | 82 ft | 5 kts | 33° |
| 2026-05-07 02:07 | 14.50892 | 121.01784 | 82 ft | 6 kts | 325° |
| 2026-05-07 02:07 | 14.50971 | 121.01704 | 82 ft | 9 kts | 315° |
| 2026-05-07 02:07 | 14.51020 | 121.01654 | 82 ft | 10 kts | 314° |
| 2026-05-07 02:08 | 14.51074 | 121.01598 | 82 ft | 11 kts | 315° |
| 2026-05-07 02:08 | 14.51132 | 121.01538 | 82 ft | 12 kts | 314° |
| 2026-05-07 02:08 | 14.51194 | 121.01472 | 82 ft | 13 kts | 314° |
| 2026-05-07 02:08 | 14.51248 | 121.01428 | 82 ft | 8 kts | 347° |
| 2026-05-07 02:09 | 14.51292 | 121.01443 | 82 ft | 6 kts | 43° |
| 2026-05-07 02:09 | 14.51324 | 121.01481 | 82 ft | 7 kts | 49° |
| 2026-05-07 02:09 | 14.51362 | 121.01527 | 82 ft | 8 kts | 49° |
| 2026-05-07 02:09 | 14.51407 | 121.01574 | 82 ft | 9 kts | 43° |
| 2026-05-07 02:10 | 14.51444 | 121.01595 | 82 ft | 4 kts | 359° |
| 2026-05-07 02:10 | 14.51476 | 121.01571 | 82 ft | 6 kts | 314° |
| 2026-05-07 02:10 | 14.51511 | 121.01534 | 82 ft | 7 kts | 315° |
| 2026-05-07 02:10 | 14.51552 | 121.01491 | 82 ft | 9 kts | 314° |
| 2026-05-07 02:11 | 14.51600 | 121.01440 | 82 ft | 10 kts | 315° |
| 2026-05-07 02:11 | 14.51653 | 121.01386 | 82 ft | 11 kts | 315° |
| 2026-05-07 02:11 | 14.51712 | 121.01326 | 82 ft | 12 kts | 315° |
| 2026-05-07 02:11 | 14.51775 | 121.01261 | 82 ft | 13 kts | 313° |
| 2026-05-07 02:12 | 14.51842 | 121.01192 | 82 ft | 13 kts | 315° |
| 2026-05-07 02:12 | 14.51912 | 121.01120 | 82 ft | 14 kts | 315° |
| 2026-05-07 02:12 | 14.51983 | 121.01045 | 82 ft | 14 kts | 314° |
| 2026-05-07 02:12 | 14.52058 | 121.00966 | 82 ft | 15 kts | 315° |
| 2026-05-07 02:13 | 14.52137 | 121.00886 | 82 ft | 15 kts | 315° |
| 2026-05-07 02:13 | 14.52216 | 121.00804 | 82 ft | 16 kts | 313° |
| 2026-05-07 02:13 | 14.52262 | 121.00754 | 82 ft | 6 kts | 313° |
| 2026-05-07 02:13 | 14.52282 | 121.00736 | 82 ft | 1 kts | 349° |
| 2026-05-07 02:14 | 14.52298 | 121.00747 | 82 ft | 3 kts | 44° |
| 2026-05-07 02:14 | 14.52317 | 121.00766 | 82 ft | 3 kts | 45° |
| 2026-05-07 02:14 | 14.52335 | 121.00784 | 82 ft | 3 kts | 45° |
| 2026-05-07 02:14 | 14.52349 | 121.00799 | 82 ft | 2 kts | 45° |
| 2026-05-07 02:15 | 14.52354 | 121.00803 | 82 ft | 0 kts | 45° |
| 2026-05-07 02:15 | 14.52355 | 121.00806 | 82 ft | 0 kts | 46° |
| 2026-05-07 02:15 | 14.52357 | 121.00807 | 82 ft | 0 kts | 46° |
| 2026-05-07 02:15 | 14.52358 | 121.00809 | 82 ft | 0 kts | 46° |